Adfines Sun — 9HA2925 — position and weather

sailwx.info

Track history (hours):
 
Tides and Currents Weather Stations Pressure Air Temp Water Temp Dewpoint Dewpoint Depression Visibility Wind Speed Wind Dir Waves Ship Positions

Adfines Sun

Last reported at 2017-Oct-27 10:18 UTC. Time now 2017-Nov-19 19:48 UTC.
Position N 26°12' W 079°29'.
Warning: this ship's position is 23 days out of date.

Length 162 m; draft 8.6 m.

Type: Tanker. MMSI: 256764000.

Date/timePositionNaut miles runAvg speedWind from/ knotsBaromVisibWave heightAir tempDewpointWater temp
2017-Oct-27 10:18N 26°12' W 079°29'412.0
2017-Oct-27 10:00N 26°09' W 079°29'2112.2
2017-Oct-27 08:18N 25°48' W 079°32'512.5
2017-Oct-27 07:56N 25°44' W 079°33'  
2017-Oct-22 05:22N 29°30' W 094°52'411.9
2017-Oct-22 05:00N 29°33' W 094°55'612.1
2017-Oct-22 04:30N 29°38' W 094°58'610.6
2017-Oct-22 03:57N 29°43' W 095°01'4 0.2
2017-Oct-21 05:55N 29°45' W 095°06'1 2.1
2017-Oct-21 05:30N 29°45' W 095°06'5 6.5
2017-Oct-21 04:48N 29°43' W 095°01'310.5
2017-Oct-21 04:30N 29°40' W 094°59'612.2
2017-Oct-21 04:00N 29°35' W 094°56'  
Track history (hours):
 
Tides and Currents Weather Stations Pressure Air Temp Water Temp Dewpoint Dewpoint Depression Visibility Wind Speed Wind Dir Waves Ship Positions

Adfines Sun

Last reported at 2017-Oct-27 10:18 UTC. Time now 2017-Nov-19 19:48 UTC.
Position N 26°12' W 079°29'.
Warning: this ship's position is 23 days out of date.

Length 162 m; draft 8.6 m.

Type: Tanker. MMSI: 256764000.

Date/timePositionNaut miles runAvg speedWind from/ knotsBaromVisibWave heightAir tempDewpointWater temp
2017-Oct-27 10:18N 26°12' W 079°29'412.0
2017-Oct-27 10:00N 26°09' W 079°29'2112.2
2017-Oct-27 08:18N 25°48' W 079°32'512.5
2017-Oct-27 07:56N 25°44' W 079°33'  
2017-Oct-22 05:22N 29°30' W 094°52'411.9
2017-Oct-22 05:00N 29°33' W 094°55'612.1
2017-Oct-22 04:30N 29°38' W 094°58'610.6
2017-Oct-22 03:57N 29°43' W 095°01'4 0.2
2017-Oct-21 05:55N 29°45' W 095°06'1 2.1
2017-Oct-21 05:30N 29°45' W 095°06'5 6.5
2017-Oct-21 04:48N 29°43' W 095°01'310.5
2017-Oct-21 04:30N 29°40' W 094°59'612.2
2017-Oct-21 04:00N 29°35' W 094°56'  

Dump ship's entire track history